• Join FlightAware (Why Join?)
  • Login
  • US Flag 
08:36AM EST


 

Airport Tracker/Info


-or-


 

Live Flight TrackerFlight Track Log ✈ N983CA ✈ 20-Apr-2013 ✈ KONT - KSFO

Flight Track Log - Related Links

Times and Time Zones

All times are in EDT time to prevent confusion due to time zone crossing. See the N983CA flight status page for this flight to view local times or setup timezone preferences in your user account.

Time Position Orientation Groundspeed Altitude Reporting Facility
EDT Latitude Longitude Course Direction KTS MPH feet Rate Location/Type
11:56AM 34.0556 -117.6942 268° West 239 275 3,200  Level Los Angeles Center
11:57AM 34.0889 -117.7908 293° West 263 303 6,300 2,460 Climbing Los Angeles Center
11:58AM 34.1325 -117.8633 306° West 269 310 8,400 2,040 Climbing Los Angeles Center
11:59AM 34.3100 -118.1316 309° West  Level FlightAware Approximate
11:59AM 34.1789 -117.9342 308° West 270 311 10,600  Level Los Angeles Center
12:00PM 34.3748 -118.2358 306° West  Level FlightAware Approximate
12:00PM 34.2303 -118.0058 311° West 280 322 12,700  Level Los Angeles Center
12:01PM 34.2814 -118.0831 309° West 295 339 14,200 1,680 Climbing Los Angeles Center
12:02PM 34.3478 -118.1822 309° West 314 361 16,200 1,620 Climbing Los Angeles Center
12:04PM 34.4201 -118.2942 311° West  Level FlightAware Approximate
12:04PM 34.4617 -118.3511 311° West 328 377 19,300  Level Los Angeles Center
12:05PM 34.5217 -118.4400 309° West 342 394 20,600 1,080 Climbing Los Angeles Center
12:06PM 34.5822 -118.5258 311° West 337 388 21,600 1,020 Climbing Los Angeles Center
12:07PM 34.6425 -118.6203 308° West 354 407 22,800 1,080 Climbing Los Angeles Center
12:08PM 34.7169 -118.7300 310° West 351 404 23,900 1,020 Climbing Los Angeles Center
12:09PM 34.7783 -118.8239 309° West 357 411 25,000 900 Climbing Los Angeles Center
12:11PM 34.8536 -118.9036 319° Northwest 365 420 25,800 720 Climbing Los Angeles Center
12:12PM 34.9447 -118.9772 326° Northwest 363 418 26,600 720 Climbing Los Angeles Center
12:13PM 35.0117 -119.0703 311° West 377 434 27,300 600 Climbing Los Angeles Center
12:14PM 35.0697 -119.1744 304° West 371 427 27,900 540 Climbing Los Angeles Center
12:15PM 35.1267 -119.2811 303° West 375 432 28,500 660 Climbing Los Angeles Center
12:16PM 35.1839 -119.3883 303° West 375 432 29,300 720 Climbing Los Angeles Center
12:17PM 35.2519 -119.5161 303° West 375 432 30,100 720 Climbing Los Angeles Center
12:18PM 35.3089 -119.6239 303° West 377 434 30,800 600 Climbing Los Angeles Center
12:19PM 35.3647 -119.7300 303° West 373 429 31,400 600 Climbing Los Angeles Center
12:19PM 35.3753 -119.7492 304° West 375 432 31,600 420 Climbing Oakland Center
12:20PM 35.4419 -119.8775 303° West 375 432 32,000 180 Climbing Oakland Center
12:21PM 35.4983 -119.9850 303° West 378 435 32,000  Level Oakland Center
12:22PM 35.5544 -120.0914 303° West 376 433 32,000  Level Oakland Center
12:23PM 35.6106 -120.1989 303° West 379 436 32,000  Level Oakland Center
12:24PM 35.6656 -120.3083 302° West 381 438 32,000  Level Oakland Center
12:25PM 35.7139 -120.4219 298° West 379 436 32,000  Level Oakland Center
12:26PM 35.7592 -120.5372 296° West 379 436 32,000  Level Oakland Center
12:27PM 35.8139 -120.6772 296° West 382 440 32,000  Level Oakland Center
12:28PM 35.8589 -120.7939 295° West 380 437 32,000  Level Oakland Center
12:29PM 35.9036 -120.9125 295° West 383 441 32,000  Level Oakland Center
12:30PM 35.9486 -121.0308 295° West 383 441 32,000  Level Oakland Center
12:31PM 35.9944 -121.1478 296° West 381 438 32,000  Level Oakland Center
12:32PM 36.0392 -121.2669 295° West 383 441 32,000  Level Oakland Center
12:33PM 36.0828 -121.3864 294° West 385 443 32,000 -180 Level Oakland Center
12:34PM 36.1208 -121.5056 292° West 379 436 31,700 -660 Descending Oakland Center
12:35PM 36.1267 -121.6392 273° West 386 444 30,700 -1,080 Descending Oakland Center
12:36PM 36.1592 -121.7897 285° West 395 455 29,500 -1,080 Descending Oakland Center
12:37PM 36.2522 -121.8253 343° North 380 437 28,600 -1,200 Descending Oakland Center
12:38PM 36.3592 -121.8583 346° North 391 450 27,100 -2,280 Descending Oakland Center
12:40PM 36.5667 -121.9167 347° North 395 455 22,400 -2,520 Descending Northern Cal TRACON
12:40PM 36.5744 -121.9178 353° North 391 450 22,000 -2,580 Descending Oakland Center
12:41PM 36.6667 -121.9500 344° North 386 444 19,600 -2,760 Descending Northern Cal TRACON
12:42PM 36.7667 -121.9667 352° North 375 432 17,400 -1,920 Descending Northern Cal TRACON
12:43PM 36.8667 -122.0000 345° North 364 419 16,000 -1,500 Descending Northern Cal TRACON
12:44PM 36.9008 -122.0047 354° North 363 418 15,400 -1,500 Descending Oakland Center
12:45PM 36.9986 -122.0289 349° North 359 413 13,900 -1,080 Descending Oakland Center
12:46PM 37.0919 -122.0558 347° North 346 398 13,300 -1,140 Descending Oakland Center
12:47PM 37.1406 -122.1647 299° West 362 417 11,700 -1,440 Descending Oakland Center
12:48PM 37.1886 -122.2678 300° West 350 403 10,400 -1,080 Descending Oakland Center
12:49PM 37.2589 -122.2489 12° North 266 306 9,500 -1,020 Descending Oakland Center
12:50PM 37.3142 -122.2039 33° Northeast 238 274 8,400 -1,140 Descending Oakland Center
12:51PM 37.3706 -122.1706 25° Northeast 227 261 7,200 -1,620 Descending Oakland Center
12:52PM 37.4353 -122.1583 North 207 238 5,100 -1,080 Descending Oakland Center
12:53PM 37.4928 -122.1667 353° North 207 238 5,000 -780 Descending Oakland Center
12:54PM 37.5436 -122.1964 335° Northwest 213 245 3,600 -1,380 Descending Oakland Center